sensor_id;sensor_type;location;lat;lon;timestamp;temperature;humidity
48551;DHT22;34397;51.176;6.738;2023-09-30T00:01:31;14.40;75.90
48551;DHT22;34397;51.176;6.738;2023-09-30T00:04:03;14.40;76.00
48551;DHT22;34397;51.176;6.738;2023-09-30T00:06:38;14.40;76.00
48551;DHT22;34397;51.176;6.738;2023-09-30T00:09:10;14.40;75.80
48551;DHT22;34397;51.176;6.738;2023-09-30T00:11:43;14.40;75.70
48551;DHT22;34397;51.176;6.738;2023-09-30T00:14:15;14.40;75.50
48551;DHT22;34397;51.176;6.738;2023-09-30T00:16:48;14.40;75.40
48551;DHT22;34397;51.176;6.738;2023-09-30T00:19:21;14.40;75.30
48551;DHT22;34397;51.176;6.738;2023-09-30T00:21:54;14.40;75.50
48551;DHT22;34397;51.176;6.738;2023-09-30T00:24:26;14.40;75.10
48551;DHT22;34397;51.176;6.738;2023-09-30T00:26:58;14.40;75.70
48551;DHT22;34397;51.176;6.738;2023-09-30T00:29:30;14.40;75.80
48551;DHT22;34397;51.176;6.738;2023-09-30T00:32:02;14.40;75.80
48551;DHT22;34397;51.176;6.738;2023-09-30T00:34:35;14.40;75.60
48551;DHT22;34397;51.176;6.738;2023-09-30T00:37:08;14.40;76.00
48551;DHT22;34397;51.176;6.738;2023-09-30T00:39:40;14.40;75.70
48551;DHT22;34397;51.176;6.738;2023-09-30T00:42:12;14.40;75.80
48551;DHT22;34397;51.176;6.738;2023-09-30T00:44:43;14.40;75.90
48551;DHT22;34397;51.176;6.738;2023-09-30T00:47:15;14.40;75.90
48551;DHT22;34397;51.176;6.738;2023-09-30T00:49:49;14.40;76.40
48551;DHT22;34397;51.176;6.738;2023-09-30T00:52:22;14.40;75.50
48551;DHT22;34397;51.176;6.738;2023-09-30T00:54:54;14.40;75.50
48551;DHT22;34397;51.176;6.738;2023-09-30T00:57:26;14.40;75.80
48551;DHT22;34397;51.176;6.738;2023-09-30T01:00:00;14.40;76.00
48551;DHT22;34397;51.176;6.738;2023-09-30T01:02:32;14.40;75.80
48551;DHT22;34397;51.176;6.738;2023-09-30T01:05:05;14.30;75.80
48551;DHT22;34397;51.176;6.738;2023-09-30T01:07:39;14.40;75.90
48551;DHT22;34397;51.176;6.738;2023-09-30T01:10:11;14.40;76.00
48551;DHT22;34397;51.176;6.738;2023-09-30T01:12:43;14.40;75.70
48551;DHT22;34397;51.176;6.738;2023-09-30T01:15:14;14.30;75.40
48551;DHT22;34397;51.176;6.738;2023-09-30T01:17:46;14.40;76.10
48551;DHT22;34397;51.176;6.738;2023-09-30T01:20:18;14.30;76.10
48551;DHT22;34397;51.176;6.738;2023-09-30T01:22:54;14.30;76.80
48551;DHT22;34397;51.176;6.738;2023-09-30T01:25:27;14.30;75.90
48551;DHT22;34397;51.176;6.738;2023-09-30T01:27:59;14.30;76.00
48551;DHT22;34397;51.176;6.738;2023-09-30T01:30:36;14.30;76.00
48551;DHT22;34397;51.176;6.738;2023-09-30T01:33:08;14.30;76.10
48551;DHT22;34397;51.176;6.738;2023-09-30T01:35:40;14.30;76.10
48551;DHT22;34397;51.176;6.738;2023-09-30T01:38:13;14.30;76.00
48551;DHT22;34397;51.176;6.738;2023-09-30T01:40:46;14.30;75.80
48551;DHT22;34397;51.176;6.738;2023-09-30T01:43:17;14.30;76.40
48551;DHT22;34397;51.176;6.738;2023-09-30T01:45:49;14.30;76.40
48551;DHT22;34397;51.176;6.738;2023-09-30T01:48:21;14.40;76.90
48551;DHT22;34397;51.176;6.738;2023-09-30T01:50:53;14.40;76.70
48551;DHT22;34397;51.176;6.738;2023-09-30T01:53:26;14.40;76.30
48551;DHT22;34397;51.176;6.738;2023-09-30T01:55:58;14.40;76.00
48551;DHT22;34397;51.176;6.738;2023-09-30T01:58:30;14.30;76.00
48551;DHT22;34397;51.176;6.738;2023-09-30T02:01:02;14.30;75.90
48551;DHT22;34397;51.176;6.738;2023-09-30T02:03:35;14.20;75.80
48551;DHT22;34397;51.176;6.738;2023-09-30T02:06:08;14.20;75.90
48551;DHT22;34397;51.176;6.738;2023-09-30T02:08:42;14.20;75.70
48551;DHT22;34397;51.176;6.738;2023-09-30T02:11:15;14.20;75.30
48551;DHT22;34397;51.176;6.738;2023-09-30T02:13:47;14.20;75.60
48551;DHT22;34397;51.176;6.738;2023-09-30T02:16:19;14.10;75.70
48551;DHT22;34397;51.176;6.738;2023-09-30T02:18:50;14.10;75.50
48551;DHT22;34397;51.176;6.738;2023-09-30T02:21:23;14.10;75.60
48551;DHT22;34397;51.176;6.738;2023-09-30T02:23:56;14.10;75.50
48551;DHT22;34397;51.176;6.738;2023-09-30T02:26:28;14.10;75.20
48551;DHT22;34397;51.176;6.738;2023-09-30T02:28:59;14.00;75.30
48551;DHT22;34397;51.176;6.738;2023-09-30T02:31:31;14.00;75.20
48551;DHT22;34397;51.176;6.738;2023-09-30T02:34:03;14.00;75.20
48551;DHT22;34397;51.176;6.738;2023-09-30T02:36:35;13.90;74.60
48551;DHT22;34397;51.176;6.738;2023-09-30T02:39:09;13.90;75.20
48551;DHT22;34397;51.176;6.738;2023-09-30T02:41:41;13.90;75.10
48551;DHT22;34397;51.176;6.738;2023-09-30T02:44:13;13.80;75.20
48551;DHT22;34397;51.176;6.738;2023-09-30T02:46:45;13.80;75.10
48551;DHT22;34397;51.176;6.738;2023-09-30T02:49:17;13.80;75.10
48551;DHT22;34397;51.176;6.738;2023-09-30T02:51:49;13.70;75.10
48551;DHT22;34397;51.176;6.738;2023-09-30T02:54:22;13.70;75.50
48551;DHT22;34397;51.176;6.738;2023-09-30T02:56:54;13.80;75.60
48551;DHT22;34397;51.176;6.738;2023-09-30T02:59:26;13.70;75.70
48551;DHT22;34397;51.176;6.738;2023-09-30T03:01:58;13.70;75.60
48551;DHT22;34397;51.176;6.738;2023-09-30T03:04:30;13.70;75.50
48551;DHT22;34397;51.176;6.738;2023-09-30T03:07:03;13.60;75.40
48551;DHT22;34397;51.176;6.738;2023-09-30T03:09:36;13.60;75.50
48551;DHT22;34397;51.176;6.738;2023-09-30T03:12:08;13.60;75.60
48551;DHT22;34397;51.176;6.738;2023-09-30T03:14:40;13.60;76.30
48551;DHT22;34397;51.176;6.738;2023-09-30T03:17:13;13.60;76.00
48551;DHT22;34397;51.176;6.738;2023-09-30T03:19:44;13.60;75.80
48551;DHT22;34397;51.176;6.738;2023-09-30T03:22:16;13.60;75.60
48551;DHT22;34397;51.176;6.738;2023-09-30T03:24:50;13.60;75.50
48551;DHT22;34397;51.176;6.738;2023-09-30T03:27:24;13.60;75.10
48551;DHT22;34397;51.176;6.738;2023-09-30T03:29:56;13.50;75.20
48551;DHT22;34397;51.176;6.738;2023-09-30T03:32:28;13.50;75.40
48551;DHT22;34397;51.176;6.738;2023-09-30T03:35:00;13.50;75.70
48551;DHT22;34397;51.176;6.738;2023-09-30T03:37:32;13.60;75.80
48551;DHT22;34397;51.176;6.738;2023-09-30T03:40:07;13.50;75.80
48551;DHT22;34397;51.176;6.738;2023-09-30T03:42:45;13.50;75.60
48551;DHT22;34397;51.176;6.738;2023-09-30T03:45:19;13.50;75.90
48551;DHT22;34397;51.176;6.738;2023-09-30T03:47:51;13.50;75.90
48551;DHT22;34397;51.176;6.738;2023-09-30T03:50:23;13.40;76.10
48551;DHT22;34397;51.176;6.738;2023-09-30T03:53:01;13.40;76.10
48551;DHT22;34397;51.176;6.738;2023-09-30T03:55:34;13.40;75.20
48551;DHT22;34397;51.176;6.738;2023-09-30T03:58:07;13.40;75.60
48551;DHT22;34397;51.176;6.738;2023-09-30T04:00:39;13.40;75.90
48551;DHT22;34397;51.176;6.738;2023-09-30T04:03:11;13.40;75.80
48551;DHT22;34397;51.176;6.738;2023-09-30T04:05:43;13.40;75.90
48551;DHT22;34397;51.176;6.738;2023-09-30T04:08:15;13.30;75.80
48551;DHT22;34397;51.176;6.738;2023-09-30T04:10:48;13.30;76.40
48551;DHT22;34397;51.176;6.738;2023-09-30T04:13:20;13.30;75.50
48551;DHT22;34397;51.176;6.738;2023-09-30T04:15:52;13.30;75.90
48551;DHT22;34397;51.176;6.738;2023-09-30T04:18:24;13.30;75.90
48551;DHT22;34397;51.176;6.738;2023-09-30T04:20:56;13.20;75.90
48551;DHT22;34397;51.176;6.738;2023-09-30T04:23:28;13.20;75.90
48551;DHT22;34397;51.176;6.738;2023-09-30T04:26:02;13.20;76.60
48551;DHT22;34397;51.176;6.738;2023-09-30T04:28:35;13.20;76.00
48551;DHT22;34397;51.176;6.738;2023-09-30T04:31:07;13.20;76.10
48551;DHT22;34397;51.176;6.738;2023-09-30T04:33:40;13.20;75.90
48551;DHT22;34397;51.176;6.738;2023-09-30T04:36:12;13.20;75.80
48551;DHT22;34397;51.176;6.738;2023-09-30T04:38:44;13.20;75.70
48551;DHT22;34397;51.176;6.738;2023-09-30T04:41:17;13.10;75.40
48551;DHT22;34397;51.176;6.738;2023-09-30T04:43:49;13.10;75.60
48551;DHT22;34397;51.176;6.738;2023-09-30T04:46:23;13.10;75.70
48551;DHT22;34397;51.176;6.738;2023-09-30T04:48:55;13.10;75.40
48551;DHT22;34397;51.176;6.738;2023-09-30T04:51:27;13.10;75.10
48551;DHT22;34397;51.176;6.738;2023-09-30T04:53:58;13.00;74.70
48551;DHT22;34397;51.176;6.738;2023-09-30T04:56:33;13.00;74.90
48551;DHT22;34397;51.176;6.738;2023-09-30T04:59:05;12.90;74.90
48551;DHT22;34397;51.176;6.738;2023-09-30T05:01:37;12.90;75.20
48551;DHT22;34397;51.176;6.738;2023-09-30T05:04:09;12.90;75.40
48551;DHT22;34397;51.176;6.738;2023-09-30T05:06:41;12.90;75.50
48551;DHT22;34397;51.176;6.738;2023-09-30T05:09:13;12.90;75.60
48551;DHT22;34397;51.176;6.738;2023-09-30T05:11:46;12.90;75.80
48551;DHT22;34397;51.176;6.738;2023-09-30T05:14:18;12.90;75.70
48551;DHT22;34397;51.176;6.738;2023-09-30T05:16:51;12.90;75.80
48551;DHT22;34397;51.176;6.738;2023-09-30T05:19:23;12.90;75.80
48551;DHT22;34397;51.176;6.738;2023-09-30T05:21:55;12.80;75.80
48551;DHT22;34397;51.176;6.738;2023-09-30T05:24:27;12.90;75.90
48551;DHT22;34397;51.176;6.738;2023-09-30T05:27:01;12.80;75.70
48551;DHT22;34397;51.176;6.738;2023-09-30T05:29:33;12.80;75.50
48551;DHT22;34397;51.176;6.738;2023-09-30T05:32:05;12.80;75.60
48551;DHT22;34397;51.176;6.738;2023-09-30T05:34:37;12.80;75.60
48551;DHT22;34397;51.176;6.738;2023-09-30T05:37:09;12.80;75.30
48551;DHT22;34397;51.176;6.738;2023-09-30T05:39:42;12.80;75.90
48551;DHT22;34397;51.176;6.738;2023-09-30T05:42:16;12.80;76.30
48551;DHT22;34397;51.176;6.738;2023-09-30T05:44:49;12.80;76.30
48551;DHT22;34397;51.176;6.738;2023-09-30T05:47:21;12.80;76.50
48551;DHT22;34397;51.176;6.738;2023-09-30T05:49:53;12.80;76.40
48551;DHT22;34397;51.176;6.738;2023-09-30T05:52:25;12.80;76.50
48551;DHT22;34397;51.176;6.738;2023-09-30T05:54:57;12.80;76.60
48551;DHT22;34397;51.176;6.738;2023-09-30T05:57:32;12.70;76.50
48551;DHT22;34397;51.176;6.738;2023-09-30T06:00:05;12.80;76.50
48551;DHT22;34397;51.176;6.738;2023-09-30T06:02:51;12.80;76.50
48551;DHT22;34397;51.176;6.738;2023-09-30T06:05:23;12.70;76.70
48551;DHT22;34397;51.176;6.738;2023-09-30T06:07:56;12.80;76.70
48551;DHT22;34397;51.176;6.738;2023-09-30T06:10:28;12.80;76.70
48551;DHT22;34397;51.176;6.738;2023-09-30T06:13:02;12.80;76.60
48551;DHT22;34397;51.176;6.738;2023-09-30T06:15:36;12.90;77.00
48551;DHT22;34397;51.176;6.738;2023-09-30T06:18:10;12.80;77.30
48551;DHT22;34397;51.176;6.738;2023-09-30T06:20:43;12.80;77.60
48551;DHT22;34397;51.176;6.738;2023-09-30T06:23:15;12.90;77.80
48551;DHT22;34397;51.176;6.738;2023-09-30T06:25:47;12.90;78.00
48551;DHT22;34397;51.176;6.738;2023-09-30T06:28:20;12.90;78.30
48551;DHT22;34397;51.176;6.738;2023-09-30T06:30:56;13.00;78.40
48551;DHT22;34397;51.176;6.738;2023-09-30T06:33:28;13.00;78.70
48551;DHT22;34397;51.176;6.738;2023-09-30T06:36:00;13.00;79.10
48551;DHT22;34397;51.176;6.738;2023-09-30T06:38:32;13.10;79.00
48551;DHT22;34397;51.176;6.738;2023-09-30T06:41:04;13.10;79.10
48551;DHT22;34397;51.176;6.738;2023-09-30T06:43:37;13.20;79.30
48551;DHT22;34397;51.176;6.738;2023-09-30T06:46:10;13.20;79.30
48551;DHT22;34397;51.176;6.738;2023-09-30T06:48:43;13.30;79.50
48551;DHT22;34397;51.176;6.738;2023-09-30T06:51:15;13.30;79.50
48551;DHT22;34397;51.176;6.738;2023-09-30T06:53:47;13.40;79.50
48551;DHT22;34397;51.176;6.738;2023-09-30T06:56:19;13.50;79.30
48551;DHT22;34397;51.176;6.738;2023-09-30T06:58:52;13.60;79.20
48551;DHT22;34397;51.176;6.738;2023-09-30T07:01:24;13.60;79.20
48551;DHT22;34397;51.176;6.738;2023-09-30T07:03:56;13.70;79.30
48551;DHT22;34397;51.176;6.738;2023-09-30T07:06:28;13.70;79.30
48551;DHT22;34397;51.176;6.738;2023-09-30T07:09:00;13.80;79.40
48551;DHT22;34397;51.176;6.738;2023-09-30T07:11:31;13.80;79.60
48551;DHT22;34397;51.176;6.738;2023-09-30T07:14:05;13.80;79.50
48551;DHT22;34397;51.176;6.738;2023-09-30T07:16:37;13.90;79.40
48551;DHT22;34397;51.176;6.738;2023-09-30T07:19:10;14.00;79.10
48551;DHT22;34397;51.176;6.738;2023-09-30T07:21:42;14.00;79.00
48551;DHT22;34397;51.176;6.738;2023-09-30T07:24:14;14.00;78.90
48551;DHT22;34397;51.176;6.738;2023-09-30T07:26:46;14.00;78.80
48551;DHT22;34397;51.176;6.738;2023-09-30T07:29:19;14.00;78.60
48551;DHT22;34397;51.176;6.738;2023-09-30T07:31:51;14.10;78.50
48551;DHT22;34397;51.176;6.738;2023-09-30T07:34:23;14.10;78.20
48551;DHT22;34397;51.176;6.738;2023-09-30T07:36:55;14.10;78.10
48551;DHT22;34397;51.176;6.738;2023-09-30T07:39:27;14.10;78.00
48551;DHT22;34397;51.176;6.738;2023-09-30T07:42:00;14.10;78.00
48551;DHT22;34397;51.176;6.738;2023-09-30T07:44:34;14.10;78.00
48551;DHT22;34397;51.176;6.738;2023-09-30T07:47:06;14.00;78.30
48551;DHT22;34397;51.176;6.738;2023-09-30T07:49:39;14.00;78.40
48551;DHT22;34397;51.176;6.738;2023-09-30T07:52:11;14.00;78.50
48551;DHT22;34397;51.176;6.738;2023-09-30T07:54:42;14.00;78.50
48551;DHT22;34397;51.176;6.738;2023-09-30T07:57:14;14.00;78.40
48551;DHT22;34397;51.176;6.738;2023-09-30T07:59:48;14.10;78.60
48551;DHT22;34397;51.176;6.738;2023-09-30T08:02:20;14.10;78.70
48551;DHT22;34397;51.176;6.738;2023-09-30T08:04:53;14.10;78.80
48551;DHT22;34397;51.176;6.738;2023-09-30T08:07:25;14.10;78.90
48551;DHT22;34397;51.176;6.738;2023-09-30T08:09:57;14.10;79.00
48551;DHT22;34397;51.176;6.738;2023-09-30T08:12:29;14.20;79.20
48551;DHT22;34397;51.176;6.738;2023-09-30T08:15:02;14.20;79.10
48551;DHT22;34397;51.176;6.738;2023-09-30T08:17:36;14.30;79.00
48551;DHT22;34397;51.176;6.738;2023-09-30T08:20:08;14.30;79.20
48551;DHT22;34397;51.176;6.738;2023-09-30T08:22:41;14.30;79.40
48551;DHT22;34397;51.176;6.738;2023-09-30T08:25:13;14.40;79.40
48551;DHT22;34397;51.176;6.738;2023-09-30T08:27:45;14.50;79.40
48551;DHT22;34397;51.176;6.738;2023-09-30T08:30:21;14.50;79.30
48551;DHT22;34397;51.176;6.738;2023-09-30T08:32:53;14.50;79.40
48551;DHT22;34397;51.176;6.738;2023-09-30T08:35:25;14.60;79.40
48551;DHT22;34397;51.176;6.738;2023-09-30T08:37:57;14.60;79.80
48551;DHT22;34397;51.176;6.738;2023-09-30T08:40:30;14.70;79.30
48551;DHT22;34397;51.176;6.738;2023-09-30T08:43:04;14.70;79.40
48551;DHT22;34397;51.176;6.738;2023-09-30T08:45:39;14.80;79.30
48551;DHT22;34397;51.176;6.738;2023-09-30T08:48:13;14.80;79.40
48551;DHT22;34397;51.176;6.738;2023-09-30T08:50:45;14.90;79.30
48551;DHT22;34397;51.176;6.738;2023-09-30T08:53:19;14.90;79.30
48551;DHT22;34397;51.176;6.738;2023-09-30T08:55:53;15.00;79.20
48551;DHT22;34397;51.176;6.738;2023-09-30T08:58:27;15.10;79.50
48551;DHT22;34397;51.176;6.738;2023-09-30T09:01:01;15.10;79.50
48551;DHT22;34397;51.176;6.738;2023-09-30T09:03:33;15.20;79.30
48551;DHT22;34397;51.176;6.738;2023-09-30T09:06:06;15.20;78.80
48551;DHT22;34397;51.176;6.738;2023-09-30T09:08:38;15.30;78.90
48551;DHT22;34397;51.176;6.738;2023-09-30T09:11:11;15.40;78.80
48551;DHT22;34397;51.176;6.738;2023-09-30T09:13:48;15.40;78.60
48551;DHT22;34397;51.176;6.738;2023-09-30T09:16:27;15.50;77.80
48551;DHT22;34397;51.176;6.738;2023-09-30T09:19:13;15.50;78.10
48551;DHT22;34397;51.176;6.738;2023-09-30T09:21:55;15.60;77.70
48551;DHT22;34397;51.176;6.738;2023-09-30T09:24:29;15.70;77.80
48551;DHT22;34397;51.176;6.738;2023-09-30T09:27:06;15.80;78.10
48551;DHT22;34397;51.176;6.738;2023-09-30T09:29:39;15.80;77.30
48551;DHT22;34397;51.176;6.738;2023-09-30T09:32:16;15.90;78.10
48551;DHT22;34397;51.176;6.738;2023-09-30T09:35:00;16.00;77.90
48551;DHT22;34397;51.176;6.738;2023-09-30T09:37:33;16.00;76.80
48551;DHT22;34397;51.176;6.738;2023-09-30T09:40:06;16.10;77.70
48551;DHT22;34397;51.176;6.738;2023-09-30T09:42:39;16.20;77.80
48551;DHT22;34397;51.176;6.738;2023-09-30T09:45:11;16.30;77.50
48551;DHT22;34397;51.176;6.738;2023-09-30T09:47:45;16.40;77.70
48551;DHT22;34397;51.176;6.738;2023-09-30T09:50:16;16.50;76.70
48551;DHT22;34397;51.176;6.738;2023-09-30T09:52:49;16.60;76.80
48551;DHT22;34397;51.176;6.738;2023-09-30T09:55:23;16.70;76.70
48551;DHT22;34397;51.176;6.738;2023-09-30T09:57:58;16.90;76.20
48551;DHT22;34397;51.176;6.738;2023-09-30T10:00:30;17.00;74.10
48551;DHT22;34397;51.176;6.738;2023-09-30T10:03:05;17.10;74.40
48551;DHT22;34397;51.176;6.738;2023-09-30T10:05:38;17.20;73.40
48551;DHT22;34397;51.176;6.738;2023-09-30T10:08:14;17.30;73.20
48551;DHT22;34397;51.176;6.738;2023-09-30T10:10:48;17.40;72.50
48551;DHT22;34397;51.176;6.738;2023-09-30T10:13:52;17.50;73.20
48551;DHT22;34397;51.176;6.738;2023-09-30T10:16:47;17.60;69.90
48551;DHT22;34397;51.176;6.738;2023-09-30T10:19:23;17.70;70.50
48551;DHT22;34397;51.176;6.738;2023-09-30T10:22:20;17.90;72.30
48551;DHT22;34397;51.176;6.738;2023-09-30T10:24:56;18.40;65.50
48551;DHT22;34397;51.176;6.738;2023-09-30T10:27:36;18.90;69.60
48551;DHT22;34397;51.176;6.738;2023-09-30T10:30:14;19.50;65.70
48551;DHT22;34397;51.176;6.738;2023-09-30T10:33:09;20.20;67.60
48551;DHT22;34397;51.176;6.738;2023-09-30T10:35:47;20.80;59.00
48551;DHT22;34397;51.176;6.738;2023-09-30T10:38:39;21.20;60.40
48551;DHT22;34397;51.176;6.738;2023-09-30T10:41:49;21.50;59.20
48551;DHT22;34397;51.176;6.738;2023-09-30T10:44:34;21.50;57.80
48551;DHT22;34397;51.176;6.738;2023-09-30T10:47:36;21.60;56.90
48551;DHT22;34397;51.176;6.738;2023-09-30T10:53:25;22.10;54.70
48551;DHT22;34397;51.176;6.738;2023-09-30T10:55:58;22.50;57.00
48551;DHT22;34397;51.176;6.738;2023-09-30T10:58:41;23.00;55.30
48551;DHT22;34397;51.176;6.738;2023-09-30T11:01:19;23.50;52.60
48551;DHT22;34397;51.176;6.738;2023-09-30T11:04:01;24.00;52.10
48551;DHT22;34397;51.176;6.738;2023-09-30T11:06:40;24.60;51.90
48551;DHT22;34397;51.176;6.738;2023-09-30T11:09:15;25.00;49.20
48551;DHT22;34397;51.176;6.738;2023-09-30T11:11:49;25.50;48.50
48551;DHT22;34397;51.176;6.738;2023-09-30T11:14:23;25.90;48.50
48551;DHT22;34397;51.176;6.738;2023-09-30T11:16:58;26.20;47.30
48551;DHT22;34397;51.176;6.738;2023-09-30T11:19:35;26.60;46.10
48551;DHT22;34397;51.176;6.738;2023-09-30T11:22:09;26.90;44.60
48551;DHT22;34397;51.176;6.738;2023-09-30T11:24:41;27.10;44.10
48551;DHT22;34397;51.176;6.738;2023-09-30T11:27:13;27.20;43.90
48551;DHT22;34397;51.176;6.738;2023-09-30T11:29:48;27.40;43.80
48551;DHT22;34397;51.176;6.738;2023-09-30T11:32:24;27.70;42.70
48551;DHT22;34397;51.176;6.738;2023-09-30T11:34:57;27.90;43.20
48551;DHT22;34397;51.176;6.738;2023-09-30T11:37:33;28.10;43.00
48551;DHT22;34397;51.176;6.738;2023-09-30T11:40:10;28.30;41.40
48551;DHT22;34397;51.176;6.738;2023-09-30T11:43:07;28.40;41.20
48551;DHT22;34397;51.176;6.738;2023-09-30T11:45:42;28.60;42.50
48551;DHT22;34397;51.176;6.738;2023-09-30T11:48:18;28.80;41.10
48551;DHT22;34397;51.176;6.738;2023-09-30T11:50:52;28.90;39.80
48551;DHT22;34397;51.176;6.738;2023-09-30T11:53:27;29.10;40.50
48551;DHT22;34397;51.176;6.738;2023-09-30T11:56:01;29.30;40.20
48551;DHT22;34397;51.176;6.738;2023-09-30T11:58:33;29.40;39.60
48551;DHT22;34397;51.176;6.738;2023-09-30T12:01:05;29.50;39.30
48551;DHT22;34397;51.176;6.738;2023-09-30T12:03:38;29.50;38.60
48551;DHT22;34397;51.176;6.738;2023-09-30T12:06:10;29.40;38.60
48551;DHT22;34397;51.176;6.738;2023-09-30T12:08:45;29.40;38.50
48551;DHT22;34397;51.176;6.738;2023-09-30T12:11:18;29.20;37.50
48551;DHT22;34397;51.176;6.738;2023-09-30T12:13:50;29.10;38.60
48551;DHT22;34397;51.176;6.738;2023-09-30T12:16:22;29.00;39.40
48551;DHT22;34397;51.176;6.738;2023-09-30T12:18:54;28.90;39.20
48551;DHT22;34397;51.176;6.738;2023-09-30T12:21:26;28.60;38.50
48551;DHT22;34397;51.176;6.738;2023-09-30T12:24:00;28.20;38.00
48551;DHT22;34397;51.176;6.738;2023-09-30T12:26:33;27.90;38.00
48551;DHT22;34397;51.176;6.738;2023-09-30T12:29:05;27.60;39.10
48551;DHT22;34397;51.176;6.738;2023-09-30T12:31:37;27.40;40.00
48551;DHT22;34397;51.176;6.738;2023-09-30T12:34:09;27.40;39.60
48551;DHT22;34397;51.176;6.738;2023-09-30T12:36:41;27.40;40.30
48551;DHT22;34397;51.176;6.738;2023-09-30T12:39:15;27.50;40.00
48551;DHT22;34397;51.176;6.738;2023-09-30T12:41:47;27.60;40.10
48551;DHT22;34397;51.176;6.738;2023-09-30T12:44:19;27.70;39.00
48551;DHT22;34397;51.176;6.738;2023-09-30T12:46:51;27.90;38.40
48551;DHT22;34397;51.176;6.738;2023-09-30T12:49:22;28.00;37.80
48551;DHT22;34397;51.176;6.738;2023-09-30T12:51:54;28.10;37.40
48551;DHT22;34397;51.176;6.738;2023-09-30T12:54:28;28.00;37.50
48551;DHT22;34397;51.176;6.738;2023-09-30T12:56:59;28.00;37.40
48551;DHT22;34397;51.176;6.738;2023-09-30T12:59:31;28.00;37.80
48551;DHT22;34397;51.176;6.738;2023-09-30T13:02:04;28.00;37.20
48551;DHT22;34397;51.176;6.738;2023-09-30T13:04:36;28.10;37.70
48551;DHT22;34397;51.176;6.738;2023-09-30T13:07:13;28.20;37.40
48551;DHT22;34397;51.176;6.738;2023-09-30T13:09:47;28.30;35.90
48551;DHT22;34397;51.176;6.738;2023-09-30T13:12:19;28.40;35.90
48551;DHT22;34397;51.176;6.738;2023-09-30T13:14:51;28.50;36.90
48551;DHT22;34397;51.176;6.738;2023-09-30T13:17:26;28.50;36.40
48551;DHT22;34397;51.176;6.738;2023-09-30T13:19:58;28.60;36.60
48551;DHT22;34397;51.176;6.738;2023-09-30T13:22:30;28.50;36.40
48551;DHT22;34397;51.176;6.738;2023-09-30T13:25:04;28.50;36.50
48551;DHT22;34397;51.176;6.738;2023-09-30T13:27:36;28.50;36.30
48551;DHT22;34397;51.176;6.738;2023-09-30T13:30:11;28.40;37.10
48551;DHT22;34397;51.176;6.738;2023-09-30T13:32:43;28.30;36.20
48551;DHT22;34397;51.176;6.738;2023-09-30T13:35:16;28.40;35.40
48551;DHT22;34397;51.176;6.738;2023-09-30T13:37:49;28.40;35.40
48551;DHT22;34397;51.176;6.738;2023-09-30T13:40:22;28.30;34.90
48551;DHT22;34397;51.176;6.738;2023-09-30T13:42:54;28.20;35.50
48551;DHT22;34397;51.176;6.738;2023-09-30T13:45:27;28.10;35.10
48551;DHT22;34397;51.176;6.738;2023-09-30T13:47:59;27.90;35.00
48551;DHT22;34397;51.176;6.738;2023-09-30T13:50:31;27.60;34.90
48551;DHT22;34397;51.176;6.738;2023-09-30T13:53:03;27.40;37.60
48551;DHT22;34397;51.176;6.738;2023-09-30T13:55:39;27.10;36.50
48551;DHT22;34397;51.176;6.738;2023-09-30T13:58:11;26.90;35.60
48551;DHT22;34397;51.176;6.738;2023-09-30T14:00:46;26.60;36.70
48551;DHT22;34397;51.176;6.738;2023-09-30T14:03:19;26.30;37.10
48551;DHT22;34397;51.176;6.738;2023-09-30T14:05:50;26.10;37.20
48551;DHT22;34397;51.176;6.738;2023-09-30T14:08:23;25.90;37.40
48551;DHT22;34397;51.176;6.738;2023-09-30T14:10:57;25.70;38.70
48551;DHT22;34397;51.176;6.738;2023-09-30T14:13:28;25.60;38.60
48551;DHT22;34397;51.176;6.738;2023-09-30T14:16:00;25.50;38.90
48551;DHT22;34397;51.176;6.738;2023-09-30T14:18:32;25.30;39.10
48551;DHT22;34397;51.176;6.738;2023-09-30T14:21:06;25.20;39.80
48551;DHT22;34397;51.176;6.738;2023-09-30T14:23:38;25.10;40.10
48551;DHT22;34397;51.176;6.738;2023-09-30T14:26:11;24.90;39.70
48551;DHT22;34397;51.176;6.738;2023-09-30T14:28:43;24.80;39.70
48551;DHT22;34397;51.176;6.738;2023-09-30T14:31:15;24.70;39.90
48551;DHT22;34397;51.176;6.738;2023-09-30T14:33:47;24.60;39.90
48551;DHT22;34397;51.176;6.738;2023-09-30T14:36:19;24.60;40.30
48551;DHT22;34397;51.176;6.738;2023-09-30T14:38:53;24.50;40.90
48551;DHT22;34397;51.176;6.738;2023-09-30T14:41:26;24.50;41.30
48551;DHT22;34397;51.176;6.738;2023-09-30T14:43:58;24.60;42.30
48551;DHT22;34397;51.176;6.738;2023-09-30T14:46:30;24.60;41.00
48551;DHT22;34397;51.176;6.738;2023-09-30T14:49:02;24.60;41.60
48551;DHT22;34397;51.176;6.738;2023-09-30T14:51:34;24.70;40.60
48551;DHT22;34397;51.176;6.738;2023-09-30T14:54:06;24.70;40.90
48551;DHT22;34397;51.176;6.738;2023-09-30T14:56:39;24.70;40.90
48551;DHT22;34397;51.176;6.738;2023-09-30T14:59:11;24.80;40.50
48551;DHT22;34397;51.176;6.738;2023-09-30T15:01:43;24.70;40.30
48551;DHT22;34397;51.176;6.738;2023-09-30T15:04:15;24.80;40.80
48551;DHT22;34397;51.176;6.738;2023-09-30T15:06:47;24.80;40.90
48551;DHT22;34397;51.176;6.738;2023-09-30T15:09:19;24.80;41.20
48551;DHT22;34397;51.176;6.738;2023-09-30T15:11:52;24.80;41.80
48551;DHT22;34397;51.176;6.738;2023-09-30T15:14:24;24.80;41.10
48551;DHT22;34397;51.176;6.738;2023-09-30T15:16:55;24.70;41.10
48551;DHT22;34397;51.176;6.738;2023-09-30T15:19:27;24.70;41.30
48551;DHT22;34397;51.176;6.738;2023-09-30T15:21:59;24.50;41.70
48551;DHT22;34397;51.176;6.738;2023-09-30T15:24:31;24.40;41.80
48551;DHT22;34397;51.176;6.738;2023-09-30T15:27:04;24.30;41.70
48551;DHT22;34397;51.176;6.738;2023-09-30T15:29:36;24.20;42.30
48551;DHT22;34397;51.176;6.738;2023-09-30T15:32:08;24.10;44.40
48551;DHT22;34397;51.176;6.738;2023-09-30T15:34:40;23.90;44.60
48551;DHT22;34397;51.176;6.738;2023-09-30T15:37:12;23.80;45.40
48551;DHT22;34397;51.176;6.738;2023-09-30T15:39:44;23.60;45.70
48551;DHT22;34397;51.176;6.738;2023-09-30T15:42:18;23.50;45.50
48551;DHT22;34397;51.176;6.738;2023-09-30T15:44:50;23.30;46.80
48551;DHT22;34397;51.176;6.738;2023-09-30T15:47:26;23.20;46.80
48551;DHT22;34397;51.176;6.738;2023-09-30T15:49:58;23.10;47.10
48551;DHT22;34397;51.176;6.738;2023-09-30T15:52:30;22.90;47.70
48551;DHT22;34397;51.176;6.738;2023-09-30T15:55:02;22.80;48.30
48551;DHT22;34397;51.176;6.738;2023-09-30T15:57:35;22.70;49.00
48551;DHT22;34397;51.176;6.738;2023-09-30T16:00:10;22.50;48.90
48551;DHT22;34397;51.176;6.738;2023-09-30T16:02:43;22.40;49.90
48551;DHT22;34397;51.176;6.738;2023-09-30T16:05:15;22.30;50.30
48551;DHT22;34397;51.176;6.738;2023-09-30T16:07:47;22.20;50.20
48551;DHT22;34397;51.176;6.738;2023-09-30T16:10:19;22.10;50.10
48551;DHT22;34397;51.176;6.738;2023-09-30T16:12:52;22.10;50.10